EGGDEYKA

Guest
Details From EGGD - Bristol International
To EYKA - Kaunas Intl
Flight Number -
Tags decoded
Created
Modified
Stats Distance 991 nm / 1,835 km
Max Altitude 0 ft / 0 m
Waypoints 4
Social Downloads 0
Likes 0
Share VATSIM

Download

Looking for another format? Having issues loading an existing format? Contact us
Advertisement - Login to hide

Notes

Requested: EGGD WOTAN CPT EYKA

Route

EGGD WOTAN CPT EYKA

ID Type Via Altitude Latitude Longitude Leg Dist Tot Dist Heading (true) Name
O EGGD APT - 0 ft / 0 m 51.38266˚ -2.71892˚ - 0 nm - Bristol International
WOTAN FIX - 0 ft / 0 m 51.62389˚ -2.33500˚ 20 nm 20 nm 45° / 45° -
CPT VOR - 0 ft / 0 m 51.49167˚ -1.21972˚ 42 nm 62 nm 100° / 101° COMPTON VOR-DME
O EYKA APT - 0 ft / 0 m 54.96388˚ 24.08400˚ 927 nm 990 nm 67° / 87° Kaunas Intl

Altitude Profile

Advertisement - Login to hide

Weather


0- 5 10 15 20 25 30 35+ Temperature / ° C

Clouds and Precipitation
Forecast for 2017-12-15 12:00 UTC. Updated 2 hours ago

Ground ~20,000 ft ~40,000 ft Winds

EGGD

Details ICAO EGGD (BRS)
Name Bristol International
Region United Kingdom
Timezone Europe/London (UTC+0.0)
Stats Elevation 622 ft / 190 m (AMSL)
Location 51.382658° -2.718918°
Runways 1
Magnetic Variation 1.350° W

METAR

EGGD 151220Z AUTO 30010KT 9999 BKN028 05/01 Q1002

Decode

TAF

TAF EGGD 151101Z 1512/1612 32009KT 9999 SCT020= TAF EGPD 151055Z 1512/1612 32012KT 9999 SCT030 TEMPO 1512/1520 34015G25KT 6000 SHRA -SHRASN BKN008 TEMPO 1520/1606 4000 SHRASN -SHSN BKN005 PROB30 TEMPO 1606/1612 6000 SHRA -SHRASN BKN008

Decode

Departure Runways

ID Width Length Bearing (true) Bearing (mag) Surface Threshold Offset Overrun Length
09 148 ft / 45 m 6,655 ft / 2,029 m 86.42° 87.77° Asphalt 0 ft / 0 m 0 ft / 0 m
27 148 ft / 45 m 6,655 ft / 2,029 m 266.44° 267.79° Asphalt 499 ft / 152 m 0 ft / 0 m

EYKA

Details ICAO EYKA (KUN)
Name Kaunas Intl
Region Lithuania
Timezone Europe/Vilnius (UTC+2.0)
Stats Elevation 256 ft / 78 m (AMSL)
Location 54.963881° 24.084001°
Runways 1
Magnetic Variation 7.209° E

METAR

EYKA 151220Z 17007KT CAVOK 02/M01 Q0998 R08/2///95

Decode

TAF

TAF EYKA 151113Z 1512/1612 17012KT 7000 SCT005 BKN015 TEMPO 1515/1518 3000 FZDZ BR BKN005 BECMG 1518/1520 2000 BR OVC005 TEMPO 1520/1603 1000 SNRA FZRA OVC003 BECMG 1606/1608 28010KT 5000 BECMG 1609/1610 BKN005

Decode

Destination Runways

ID Width Length Bearing (true) Bearing (mag) Surface Threshold Offset Overrun Length
08 148 ft / 45 m 10,309 ft / 3,142 m 85.05° 77.84° Asphalt 1,116 ft / 340 m 240 ft / 73 m
26 148 ft / 45 m 10,309 ft / 3,142 m 265.09° 257.88° Asphalt 789 ft / 240 m 240 ft / 73 m

Approach Navaids

Runway Type Ident Frequency Range Bearing (true) Bearing (mag) Slope Elevation
08 Localiser IKM 109.50 MHz 18 nm / 33 km 85.09° 77.88° - 256 ft / 78 m (AMSL)
08 Glidescope IKM 109.50 MHz 10 nm / 19 km 85.07° 77.86° 3.00° 256 ft / 78 m (AMSL)
26 Localiser ISE 109.90 MHz 18 nm / 33 km 265.04° 257.83° - 256 ft / 78 m (AMSL)
26 Glidescope ISE 109.90 MHz 10 nm / 19 km 265.07° 257.86° 3.00° 256 ft / 78 m (AMSL)

Popular Alternatives